Star Markella — V7KL3 — position and weather

sailwx.info

Track history (hours):
 
Tides and Currents Weather Stations Pressure Air Temp Water Temp Dewpoint Dewpoint Depression Visibility Wind Speed Wind Dir Waves Ship Positions

Star Markella

Last reported at 2016-May-27 01:30 UTC. Time now 2016-May-27 06:36 UTC.
Position S 34°29' E 018°28'.

Length 229 m; draft 6.8 m.

Type: Cargo ship. MMSI: 538002640.

Date/timePositionNaut miles runAvg speedWind from/ knotsBaromVisibWave heightAir tempDewpointWater temp
2016-May-27 01:30S 34°29' E 018°28'1111.5
2016-May-27 00:31S 34°33' E 018°41'1111.1
2016-May-26 23:32S 34°37' E 018°53'  
2016-May-24 13:18S 32°12' E 031°23'1013.0
2016-May-24 12:34S 32°08' E 031°33'1312.5
2016-May-24 11:32S 32°03' E 031°47'1511.9
2016-May-24 10:16S 31°56' E 032°03'911.8
2016-May-24 09:32S 31°52' E 032°13'167 9.9
2016-May-23 16:33S 30°42' E 035°10'2311.4
2016-May-23 14:33S 30°33' E 035°34'  
2016-May-18 11:23S 20°15' E 058°03'  
Track history (hours):
 
Tides and Currents Weather Stations Pressure Air Temp Water Temp Dewpoint Dewpoint Depression Visibility Wind Speed Wind Dir Waves Ship Positions

Star Markella

Last reported at 2016-May-27 01:30 UTC. Time now 2016-May-27 06:36 UTC.
Position S 34°29' E 018°28'.

Length 229 m; draft 6.8 m.

Type: Cargo ship. MMSI: 538002640.

Date/timePositionNaut miles runAvg speedWind from/ knotsBaromVisibWave heightAir tempDewpointWater temp
2016-May-27 01:30S 34°29' E 018°28'1111.5
2016-May-27 00:31S 34°33' E 018°41'1111.1
2016-May-26 23:32S 34°37' E 018°53'  
2016-May-24 13:18S 32°12' E 031°23'1013.0
2016-May-24 12:34S 32°08' E 031°33'1312.5
2016-May-24 11:32S 32°03' E 031°47'1511.9
2016-May-24 10:16S 31°56' E 032°03'911.8
2016-May-24 09:32S 31°52' E 032°13'167 9.9
2016-May-23 16:33S 30°42' E 035°10'2311.4
2016-May-23 14:33S 30°33' E 035°34'  
2016-May-18 11:23S 20°15' E 058°03'  

Dump ship's entire track history